createdAt,value
2023-01-18T00:00:22.689Z,1.63
2023-01-18T00:02:55.771Z,1.80
2023-01-18T00:05:26.029Z,1.80
2023-01-18T00:07:56.741Z,1.73
2023-01-18T00:10:27.401Z,1.90
2023-01-18T00:13:04.118Z,2.43
2023-01-18T00:15:33.835Z,1.90
2023-01-18T00:18:03.284Z,1.47
2023-01-18T00:20:35.436Z,1.60
2023-01-18T00:23:04.650Z,1.93
2023-01-18T00:25:33.746Z,1.70
2023-01-18T00:28:05.207Z,1.73
2023-01-18T00:30:37.386Z,2.13
2023-01-18T00:33:06.470Z,2.50
2023-01-18T00:35:35.671Z,2.10
2023-01-18T00:38:08.435Z,1.90
2023-01-18T00:40:37.830Z,2.17
2023-01-18T00:43:37.160Z,1.90
2023-01-18T00:46:06.761Z,1.60
2023-01-18T00:48:36.357Z,2.27
2023-01-18T00:51:06.701Z,1.70
2023-01-18T00:53:43.064Z,1.67
2023-01-18T00:56:14.415Z,1.70
2023-01-18T00:58:45.576Z,1.70
2023-01-18T01:01:15.857Z,1.70
2023-01-18T01:04:02.702Z,2.00
2023-01-18T01:06:50.187Z,2.10
2023-01-18T01:09:23.483Z,1.93
2023-01-18T01:12:13.822Z,1.83
2023-01-18T01:15:04.416Z,2.40
2023-01-18T01:17:52.559Z,1.80
2023-01-18T01:20:39.267Z,1.27
2023-01-18T01:23:40.196Z,1.63
2023-01-18T01:26:17.091Z,2.10
2023-01-18T01:28:53.253Z,1.60
2023-01-18T01:31:25.257Z,1.57
2023-01-18T01:33:56.981Z,1.67
2023-01-18T01:36:29.149Z,1.97
2023-01-18T01:38:58.854Z,1.40
2023-01-18T01:41:30.697Z,1.83
2023-01-18T01:44:03.465Z,3.00
2023-01-18T01:46:37.407Z,2.00
2023-01-18T01:49:14.286Z,1.73
2023-01-18T01:51:44.722Z,2.30
2023-01-18T01:54:17.099Z,1.90
2023-01-18T01:56:48.134Z,2.30
2023-01-18T01:59:18.974Z,2.50
2023-01-18T02:01:50.319Z,1.70
2023-01-18T02:04:19.930Z,1.40
2023-01-18T02:06:49.331Z,1.93
2023-01-18T02:09:23.312Z,2.40
2023-01-18T02:11:54.079Z,2.57
2023-01-18T02:14:33.921Z,1.80
2023-01-18T02:17:17.171Z,1.97
2023-01-18T02:20:28.335Z,2.00
2023-01-18T02:23:31.037Z,1.77
2023-01-18T02:26:17.740Z,1.70
2023-01-18T02:28:52.061Z,1.63
2023-01-18T02:31:23.403Z,1.77
2023-01-18T02:34:09.085Z,1.90
2023-01-18T02:36:45.143Z,2.03
2023-01-18T02:39:23.868Z,1.73
2023-01-18T02:42:13.135Z,1.30
2023-01-18T02:45:05.385Z,1.50
2023-01-18T02:47:34.982Z,2.30
2023-01-18T02:50:05.107Z,1.97
2023-01-18T02:52:42.999Z,2.17
2023-01-18T02:55:18.439Z,1.40
2023-01-18T02:57:47.652Z,2.13
2023-01-18T03:00:19.409Z,1.73
2023-01-18T03:02:49.678Z,2.17
2023-01-18T03:05:19.937Z,1.83
2023-01-18T03:07:55.097Z,1.73
2023-01-18T03:10:28.494Z,1.40
2023-01-18T03:13:01.161Z,1.43
2023-01-18T03:15:38.601Z,1.50
2023-01-18T03:18:14.239Z,2.00
2023-01-18T03:20:48.696Z,2.03
2023-01-18T03:23:34.188Z,1.67
2023-01-18T03:26:05.207Z,1.63
2023-01-18T03:29:00.373Z,1.30
2023-01-18T03:31:57.292Z,2.00
2023-01-18T03:34:30.311Z,1.23
2023-01-18T03:37:03.618Z,1.43
2023-01-18T03:39:36.076Z,1.77
2023-01-18T03:42:07.831Z,1.13
2023-01-18T03:44:49.731Z,1.50
2023-01-18T03:47:21.081Z,1.73
2023-01-18T03:50:00.716Z,1.67
2023-01-18T03:52:37.816Z,2.07
2023-01-18T03:55:17.010Z,1.23
2023-01-18T03:58:01.921Z,1.33
2023-01-18T04:00:32.322Z,1.70
2023-01-18T04:03:05.912Z,1.37
2023-01-18T04:05:42.720Z,1.20
2023-01-18T04:08:42.631Z,1.37
2023-01-18T04:11:12.361Z,1.30
2023-01-18T04:13:44.621Z,1.30
2023-01-18T04:16:27.193Z,1.70
2023-01-18T04:19:04.729Z,1.67
2023-01-18T04:21:34.134Z,1.30
2023-01-18T04:24:03.409Z,1.33
2023-01-18T04:26:38.567Z,1.40
2023-01-18T04:29:18.600Z,1.40
2023-01-18T04:31:48.134Z,1.40
2023-01-18T04:34:22.553Z,1.83
2023-01-18T04:37:06.903Z,1.67
2023-01-18T04:40:09.791Z,1.10
2023-01-18T04:42:56.561Z,1.60
2023-01-18T04:45:27.628Z,1.20
2023-01-18T04:48:07.397Z,1.47
2023-01-18T04:51:17.762Z,1.33
2023-01-18T04:53:57.813Z,1.40
2023-01-18T04:56:29.403Z,1.40
2023-01-18T04:59:00.205Z,1.53
2023-01-18T05:01:38.989Z,1.40
2023-01-18T05:04:10.809Z,1.87
2023-01-18T05:06:41.626Z,1.80
2023-01-18T05:09:13.296Z,1.50
2023-01-18T05:12:35.942Z,1.27
2023-01-18T05:15:04.109Z,1.50
2023-01-18T05:17:37.097Z,1.57
2023-01-18T05:20:18.458Z,1.23
2023-01-18T05:23:14.468Z,1.30
2023-01-18T05:25:43.919Z,1.57
2023-01-18T05:28:19.152Z,2.07
2023-01-18T05:30:51.833Z,1.27
2023-01-18T05:33:30.349Z,1.30
2023-01-18T05:35:59.346Z,1.23
2023-01-18T05:38:41.345Z,2.17
2023-01-18T05:41:11.177Z,1.30
2023-01-18T05:43:43.948Z,2.23
2023-01-18T05:46:16.619Z,1.53
2023-01-18T05:48:53.702Z,1.37
2023-01-18T05:51:27.831Z,1.20
2023-01-18T05:54:03.062Z,1.60
2023-01-18T05:56:34.513Z,2.10
2023-01-18T05:59:05.250Z,1.50
2023-01-18T06:01:40.690Z,1.53
2023-01-18T06:04:13.106Z,1.90
2023-01-18T06:07:04.484Z,1.43
2023-01-18T06:12:59.273Z,1.37
2023-01-18T06:15:33.217Z,1.77
2023-01-18T06:18:05.843Z,1.80
2023-01-18T06:20:34.994Z,1.60
2023-01-18T06:23:04.378Z,2.00
2023-01-18T06:25:35.551Z,1.83
2023-01-18T06:28:12.623Z,1.60
2023-01-18T06:30:53.808Z,1.80
2023-01-18T06:33:29.106Z,2.03
2023-01-18T06:35:59.299Z,2.23
2023-01-18T06:38:30.936Z,1.87
2023-01-18T06:41:07.714Z,1.50
2023-01-18T06:43:37.002Z,1.93
2023-01-18T06:46:14.612Z,1.77
2023-01-18T06:48:44.633Z,2.10
2023-01-18T06:51:44.436Z,1.87
2023-01-18T06:54:21.628Z,1.30
2023-01-18T06:56:53.384Z,1.40
2023-01-18T06:59:22.772Z,1.43
2023-01-18T07:01:54.879Z,1.57
2023-01-18T07:04:24.024Z,1.70
2023-01-18T07:07:06.869Z,1.90
2023-01-18T07:09:36.028Z,1.70
2023-01-18T07:12:09.664Z,1.57
2023-01-18T07:14:49.103Z,1.67
2023-01-18T07:17:27.119Z,1.73
2023-01-18T07:19:56.907Z,1.60
2023-01-18T07:22:30.010Z,1.30
2023-01-18T07:25:02.694Z,1.20
2023-01-18T07:27:36.398Z,1.80
2023-01-18T07:30:33.662Z,1.33
2023-01-18T07:33:12.959Z,1.60
2023-01-18T07:36:03.183Z,1.57
2023-01-18T07:38:36.389Z,1.40
2023-01-18T07:41:12.812Z,1.80
2023-01-18T07:44:11.959Z,1.60
2023-01-18T07:46:44.112Z,1.50
2023-01-18T07:49:13.822Z,1.20
2023-01-18T07:51:47.109Z,1.20
2023-01-18T07:54:33.626Z,2.30
2023-01-18T07:57:04.440Z,1.73
2023-01-18T07:59:35.792Z,1.60
2023-01-18T08:02:12.768Z,1.37
2023-01-18T08:05:05.231Z,1.30
2023-01-18T08:07:35.607Z,2.00
2023-01-18T08:10:12.033Z,1.93
2023-01-18T08:13:39.604Z,1.83
2023-01-18T08:16:17.197Z,1.40
2023-01-18T08:18:47.074Z,1.20
2023-01-18T08:21:36.690Z,1.50
2023-01-18T08:24:29.130Z,3.10
2023-01-18T08:27:13.586Z,1.13
2023-01-18T08:29:49.138Z,1.20
2023-01-18T08:32:20.284Z,2.43
2023-01-18T08:34:49.646Z,1.90
2023-01-18T08:37:20.528Z,2.10
2023-01-18T08:39:49.624Z,1.97
2023-01-18T08:42:20.500Z,1.70
2023-01-18T08:45:01.410Z,1.37
2023-01-18T08:47:36.776Z,1.50
2023-01-18T08:50:09.351Z,1.30
2023-01-18T08:52:38.859Z,1.50
2023-01-18T08:55:13.074Z,1.87
2023-01-18T08:57:42.176Z,1.63
2023-01-18T09:00:18.750Z,1.73
2023-01-18T09:02:59.028Z,2.03
2023-01-18T09:05:29.034Z,1.93
2023-01-18T09:08:02.798Z,1.80
2023-01-18T09:10:37.775Z,1.67
2023-01-18T09:13:11.987Z,2.10
2023-01-18T09:15:40.975Z,1.70
2023-01-18T09:18:32.508Z,1.40
2023-01-18T09:21:23.576Z,1.80
2023-01-18T09:24:14.213Z,1.37
2023-01-18T09:26:52.407Z,1.50
2023-01-18T09:29:28.680Z,1.60
2023-01-18T09:31:57.765Z,1.20
2023-01-18T09:34:40.701Z,1.20
2023-01-18T09:37:10.522Z,1.20
2023-01-18T09:39:50.982Z,1.10
2023-01-18T09:42:23.422Z,1.43
2023-01-18T09:44:54.299Z,1.10
2023-01-18T09:47:43.252Z,1.43
2023-01-18T09:50:18.290Z,1.30
2023-01-18T09:52:53.630Z,1.40
2023-01-18T09:55:35.317Z,1.10
2023-01-18T09:58:13.836Z,1.27
2023-01-18T10:00:48.023Z,1.37
2023-01-18T10:03:21.968Z,1.57
2023-01-18T10:06:08.787Z,1.40
2023-01-18T10:08:51.372Z,1.40
2023-01-18T10:11:27.450Z,1.20
2023-01-18T10:14:14.668Z,1.30
2023-01-18T10:17:08.041Z,1.03
2023-01-18T10:19:37.317Z,1.40
2023-01-18T10:22:19.361Z,1.37
2023-01-18T10:25:00.209Z,1.20
2023-01-18T10:28:06.681Z,1.13
2023-01-18T10:30:57.691Z,1.00
2023-01-18T10:33:29.080Z,1.30
2023-01-18T10:36:03.780Z,1.20
2023-01-18T10:38:36.556Z,1.40
2023-01-18T10:41:06.330Z,1.30
2023-01-18T10:43:44.914Z,1.30
2023-01-18T10:46:15.924Z,1.60
2023-01-18T10:48:46.873Z,1.00
2023-01-18T10:51:33.471Z,1.20
2023-01-18T10:54:23.372Z,1.03
2023-01-18T10:57:03.351Z,0.97
2023-01-18T10:59:39.949Z,1.20
2023-01-18T11:02:20.385Z,1.27
2023-01-18T11:04:57.201Z,1.20
2023-01-18T11:07:36.658Z,1.20
2023-01-18T11:10:09.794Z,1.10
2023-01-18T11:12:48.125Z,1.10
2023-01-18T11:15:31.813Z,1.20
2023-01-18T11:18:03.072Z,1.10
2023-01-18T11:20:34.606Z,1.20
2023-01-18T11:23:18.446Z,1.10
2023-01-18T11:25:53.283Z,1.20
2023-01-18T11:28:31.267Z,1.03
2023-01-18T11:31:08.344Z,1.40
2023-01-18T11:33:42.087Z,1.20
2023-01-18T11:36:11.579Z,1.13
2023-01-18T11:38:41.903Z,1.33
2023-01-18T11:41:18.382Z,1.60
2023-01-18T11:43:59.178Z,1.40
2023-01-18T11:46:35.003Z,1.40
2023-01-18T11:49:11.781Z,1.10
2023-01-18T11:51:48.452Z,1.10
2023-01-18T11:54:26.832Z,1.43
2023-01-18T11:56:59.960Z,1.20
2023-01-18T11:59:32.429Z,1.10
2023-01-18T12:02:37.068Z,1.20
2023-01-18T12:05:33.087Z,1.00
2023-01-18T12:08:22.775Z,1.30
2023-01-18T12:11:00.566Z,1.20
2023-01-18T12:13:45.537Z,1.27
2023-01-18T12:16:31.692Z,1.30
2023-01-18T12:19:23.563Z,1.20
2023-01-18T12:22:08.823Z,1.20
2023-01-18T12:24:48.172Z,1.10
2023-01-18T12:27:24.763Z,1.13
2023-01-18T12:30:07.462Z,1.60
2023-01-18T12:33:02.476Z,1.30
2023-01-18T12:35:45.191Z,1.30
2023-01-18T12:38:19.203Z,1.10
2023-01-18T12:41:23.602Z,1.30
2023-01-18T12:44:02.346Z,1.10
2023-01-18T12:46:37.376Z,1.40
2023-01-18T12:49:19.201Z,1.40
2023-01-18T12:51:50.527Z,1.83
2023-01-18T12:54:26.898Z,2.10
2023-01-18T12:56:58.043Z,2.20
2023-01-18T12:59:30.751Z,1.43
2023-01-18T13:02:05.820Z,1.90
2023-01-18T13:04:40.796Z,2.00
2023-01-18T13:07:15.697Z,1.53
2023-01-18T13:09:51.165Z,2.20
2023-01-18T13:12:20.479Z,1.70
2023-01-18T13:14:56.321Z,1.20
2023-01-18T13:17:30.295Z,1.20
2023-01-18T13:20:05.777Z,2.30
2023-01-18T13:22:44.605Z,1.73
2023-01-18T13:25:39.920Z,1.40
2023-01-18T13:28:18.634Z,1.60
2023-01-18T13:30:56.826Z,1.57
2023-01-18T13:33:29.021Z,1.60
2023-01-18T13:35:59.851Z,1.70
2023-01-18T13:38:52.516Z,1.30
2023-01-18T13:41:26.105Z,1.20
2023-01-18T13:44:06.950Z,1.30
2023-01-18T13:46:39.611Z,1.53
2023-01-18T13:49:38.568Z,1.30
2023-01-18T13:52:33.965Z,1.60
2023-01-18T13:55:26.819Z,1.47
2023-01-18T13:57:57.302Z,1.33
2023-01-18T14:00:28.606Z,1.20
2023-01-18T14:03:08.859Z,1.63
2023-01-18T14:05:43.796Z,1.30
2023-01-18T14:08:19.851Z,1.10
2023-01-18T14:10:51.402Z,1.23
2023-01-18T14:14:10.480Z,1.60
2023-01-18T14:16:56.771Z,1.53
2023-01-18T14:19:27.710Z,1.40
2023-01-18T14:22:10.729Z,1.50
2023-01-18T14:25:01.868Z,1.17
2023-01-18T14:27:36.943Z,1.83
2023-01-18T14:30:33.284Z,1.40
2023-01-18T14:33:11.771Z,1.20
2023-01-18T14:35:40.951Z,1.70
2023-01-18T14:38:18.492Z,1.47
2023-01-18T14:40:49.950Z,1.70
2023-01-18T14:43:25.433Z,1.50
2023-01-18T14:45:59.132Z,1.30
2023-01-18T14:48:31.920Z,1.30
2023-01-18T14:51:01.654Z,1.30
2023-01-18T14:53:39.410Z,1.17
2023-01-18T14:56:12.656Z,1.57
2023-01-18T14:58:43.660Z,1.50
2023-01-18T15:01:27.588Z,1.40
2023-01-18T15:04:09.072Z,1.30
2023-01-18T15:06:45.257Z,1.50
2023-01-18T15:09:17.839Z,1.33
2023-01-18T15:11:47.220Z,1.50
2023-01-18T15:14:19.306Z,1.23
2023-01-18T15:16:49.221Z,1.33
2023-01-18T15:19:21.693Z,1.50
2023-01-18T15:21:50.907Z,1.70
2023-01-18T15:24:23.065Z,1.40
2023-01-18T15:26:54.396Z,1.50
2023-01-18T15:29:28.221Z,1.67
2023-01-18T15:31:59.581Z,1.53
2023-01-18T15:34:30.967Z,1.20
2023-01-18T15:37:04.618Z,1.50
2023-01-18T15:39:37.925Z,1.70
2023-01-18T15:42:11.005Z,1.57
2023-01-18T15:44:43.687Z,1.83
2023-01-18T15:47:22.977Z,1.30
2023-01-18T15:49:53.451Z,1.40
2023-01-18T15:52:44.954Z,1.20
2023-01-18T15:55:27.489Z,1.13
2023-01-18T15:58:01.416Z,1.53
2023-01-18T16:00:44.318Z,1.30
2023-01-18T16:03:22.424Z,1.50
2023-01-18T16:06:14.029Z,1.47
2023-01-18T16:09:00.510Z,1.60
2023-01-18T16:11:36.161Z,1.47
2023-01-18T16:14:13.312Z,1.53
2023-01-18T16:16:44.480Z,1.63
2023-01-18T16:19:28.694Z,1.40
2023-01-18T16:22:00.146Z,1.33
2023-01-18T16:24:35.889Z,1.50
2023-01-18T16:27:15.847Z,1.77
2023-01-18T16:29:53.725Z,1.90
2023-01-18T16:32:32.718Z,2.20
2023-01-18T16:35:06.685Z,1.50
2023-01-18T16:37:59.295Z,1.40
2023-01-18T16:40:29.971Z,1.60
2023-01-18T16:43:03.183Z,1.47
2023-01-18T16:45:35.285Z,1.90
2023-01-18T16:48:09.045Z,1.80
2023-01-18T16:50:39.866Z,1.40
2023-01-18T16:53:12.040Z,1.60
2023-01-18T16:55:44.309Z,1.60
2023-01-18T16:58:16.053Z,1.63
2023-01-18T17:00:51.763Z,1.43
2023-01-18T17:03:21.431Z,1.43
2023-01-18T17:05:50.830Z,1.47
2023-01-18T17:08:21.162Z,1.40
2023-01-18T17:10:51.976Z,1.80
2023-01-18T17:13:23.345Z,1.60
2023-01-18T17:16:08.821Z,1.73
2023-01-18T17:18:38.337Z,1.60
2023-01-18T17:21:07.834Z,1.60
2023-01-18T17:23:37.341Z,1.70
2023-01-18T17:26:30.929Z,1.43
2023-01-18T17:29:02.163Z,1.83
2023-01-18T17:31:55.629Z,1.70
2023-01-18T17:34:28.253Z,1.60
2023-01-18T17:37:06.109Z,1.80
2023-01-18T17:39:49.658Z,1.00
2023-01-18T17:42:30.186Z,2.03
2023-01-18T17:45:06.988Z,1.50
2023-01-18T17:47:39.054Z,1.30
2023-01-18T17:50:09.912Z,1.73
2023-01-18T17:52:43.183Z,1.53
2023-01-18T17:55:15.277Z,1.90
2023-01-18T17:57:44.961Z,2.30
2023-01-18T18:00:17.339Z,1.60
2023-01-18T18:02:53.111Z,1.50
2023-01-18T18:05:22.288Z,1.93
2023-01-18T18:07:54.658Z,2.07
2023-01-18T18:10:26.007Z,2.40
2023-01-18T18:12:55.515Z,1.57
2023-01-18T18:15:26.352Z,1.60
2023-01-18T18:17:55.941Z,1.10
2023-01-18T18:20:28.213Z,1.47
2023-01-18T18:23:29.796Z,2.00
2023-01-18T18:26:09.636Z,1.67
2023-01-18T18:28:39.040Z,1.90
2023-01-18T18:31:35.331Z,1.90
2023-01-18T18:34:08.981Z,1.90
2023-01-18T18:36:45.434Z,1.70
2023-01-18T18:39:14.545Z,1.73
2023-01-18T18:41:47.429Z,1.57
2023-01-18T18:44:20.097Z,1.93
2023-01-18T18:46:51.276Z,1.50
2023-01-18T18:49:20.642Z,2.00
2023-01-18T18:51:52.532Z,2.07
2023-01-18T18:54:25.985Z,1.53
2023-01-18T18:56:55.339Z,1.77
2023-01-18T18:59:24.314Z,2.10
2023-01-18T19:01:56.573Z,1.80
2023-01-18T19:04:41.030Z,2.07
2023-01-18T19:07:36.015Z,1.90
2023-01-18T19:10:05.665Z,2.30
2023-01-18T19:12:37.733Z,1.77
2023-01-18T19:15:08.146Z,2.30
2023-01-18T19:17:50.759Z,2.07
2023-01-18T19:20:23.409Z,2.00
2023-01-18T19:22:53.059Z,2.00
2023-01-18T19:25:25.509Z,1.77
2023-01-18T19:27:55.004Z,1.70
2023-01-18T19:30:47.378Z,1.80
2023-01-18T19:33:20.754Z,1.50
2023-01-18T19:35:49.969Z,1.90
2023-01-18T19:38:19.276Z,1.57
2023-01-18T19:40:48.474Z,2.10
2023-01-18T19:43:17.280Z,2.00
2023-01-18T19:45:46.672Z,1.60
2023-01-18T19:48:17.489Z,2.17
2023-01-18T19:50:47.724Z,1.90
2023-01-18T19:53:21.438Z,1.93
2023-01-18T19:56:02.902Z,1.90
2023-01-18T19:59:31.593Z,2.27
2023-01-18T20:02:03.397Z,2.03
2023-01-18T20:04:38.001Z,2.10
2023-01-18T20:07:07.226Z,1.73
2023-01-18T20:09:43.104Z,1.70
2023-01-18T20:12:14.199Z,1.70
2023-01-18T20:14:45.133Z,2.30
2023-01-18T20:17:15.875Z,2.30
2023-01-18T20:19:46.718Z,2.20
2023-01-18T20:22:16.093Z,1.83
2023-01-18T20:24:45.668Z,1.87
2023-01-18T20:27:17.428Z,2.30
2023-01-18T20:29:59.180Z,1.93
2023-01-18T20:32:31.260Z,2.10
2023-01-18T20:35:04.541Z,2.30
2023-01-18T20:37:34.262Z,2.07
2023-01-18T20:40:28.133Z,2.33
2023-01-18T20:42:57.353Z,2.13
2023-01-18T20:45:29.348Z,1.90
2023-01-18T20:47:58.697Z,2.00
2023-01-18T20:50:29.342Z,2.00
2023-01-18T20:52:58.939Z,2.00
2023-01-18T20:55:51.785Z,2.07
2023-01-18T20:58:19.853Z,2.07
2023-01-18T21:00:48.802Z,2.30
2023-01-18T21:03:21.002Z,3.20
2023-01-18T21:05:56.037Z,2.20
2023-01-18T21:08:25.437Z,2.10
2023-01-18T21:10:54.658Z,1.93
2023-01-18T21:13:24.881Z,2.60
2023-01-18T21:15:56.226Z,1.77
2023-01-18T21:18:38.227Z,2.10
2023-01-18T21:21:11.826Z,3.10
2023-01-18T21:23:41.964Z,2.43
2023-01-18T21:26:12.791Z,2.20
2023-01-18T21:28:42.394Z,1.93
2023-01-18T21:31:13.645Z,1.53
2023-01-18T21:34:09.565Z,2.50
2023-01-18T21:37:02.938Z,2.40
2023-01-18T21:39:44.017Z,2.50
2023-01-18T21:42:54.680Z,2.60
2023-01-18T21:45:41.431Z,2.70
2023-01-18T21:48:10.662Z,1.90
2023-01-18T21:51:22.802Z,1.93
2023-01-18T21:54:11.247Z,2.50
2023-01-18T21:56:40.555Z,2.50
2023-01-18T21:59:11.492Z,2.33
2023-01-18T22:01:42.908Z,2.83
2023-01-18T22:05:00.869Z,3.00
2023-01-18T22:07:31.597Z,2.60
2023-01-18T22:10:06.962Z,3.33
2023-01-18T22:12:39.214Z,3.10
2023-01-18T22:15:09.760Z,2.40
2023-01-18T22:18:04.553Z,2.27
2023-01-18T22:20:33.860Z,2.67
2023-01-18T22:23:03.330Z,2.60
2023-01-18T22:25:34.317Z,3.00
2023-01-18T22:28:04.313Z,3.07
2023-01-18T22:30:42.052Z,2.87
2023-01-18T22:33:21.254Z,2.70
2023-01-18T22:35:58.752Z,2.60
2023-01-18T22:38:28.015Z,2.33
2023-01-18T22:41:05.551Z,3.27
2023-01-18T22:43:49.288Z,2.87
2023-01-18T22:46:19.922Z,2.23
2023-01-18T22:48:49.943Z,3.20
2023-01-18T22:51:20.963Z,2.70
2023-01-18T22:53:52.736Z,2.73
2023-01-18T22:56:24.503Z,3.20
2023-01-18T22:59:01.479Z,2.47
2023-01-18T23:01:33.144Z,3.53
2023-01-18T23:04:05.320Z,2.40
2023-01-18T23:06:46.417Z,2.50
2023-01-18T23:09:17.746Z,2.90
2023-01-18T23:11:59.847Z,2.73
2023-01-18T23:14:46.850Z,2.60
2023-01-18T23:17:35.190Z,2.50
2023-01-18T23:20:15.365Z,2.53
2023-01-18T23:22:46.087Z,2.97
2023-01-18T23:25:18.872Z,2.20
2023-01-18T23:27:53.705Z,2.70
2023-01-18T23:30:29.964Z,2.83
2023-01-18T23:32:58.963Z,2.87
2023-01-18T23:35:28.159Z,3.07
2023-01-18T23:37:57.708Z,2.57
2023-01-18T23:40:44.321Z,3.10
2023-01-18T23:43:34.587Z,2.33
2023-01-18T23:46:31.980Z,2.50
2023-01-18T23:49:18.487Z,1.80
2023-01-18T23:52:05.211Z,2.03
2023-01-18T23:54:37.310Z,2.60
2023-01-18T23:57:09.481Z,2.30
2023-01-18T23:59:41.755Z,2.90
